VHPVM YANG-YBRM
Flight info
| Callsign | VHPVM |
|---|---|
| Flight time | 1h 21m |
| Altitude | 29000 |
| Route | ASEBU Y31 BRM |
| Aircraft | TBM8/L-SDFGRWY/S |
Departure
| Time | 2026-05-06 11:51 |
|---|---|
| Airport | West Angelas Airport (YANG) |
Arrival
| Time | 2026-05-06 13:13 |
|---|---|
| Airport | Broome International Airport (YBRM) |
| Time | Latitude | Longitude | Altitude | Speed | Heading |
|---|---|---|---|---|---|
| 2026-05-06 11:24 | -23.13651 | 118.70541 | 2294 ft | 0 kts | 242° |
| 2026-05-06 11:47 | -23.13652 | 118.70539 | 2302 ft | 5 kts | 242° |
| 2026-05-06 11:47 | -23.13681 | 118.70523 | 2295 ft | 5 kts | 167° |
| 2026-05-06 11:47 | -23.13694 | 118.70528 | 2295 ft | 0 kts | 148° |
| 2026-05-06 11:48 | -23.13727 | 118.70565 | 2298 ft | 12 kts | 116° |
| 2026-05-06 11:48 | -23.13689 | 118.70639 | 2292 ft | 18 kts | 51° |
| 2026-05-06 11:48 | -23.13576 | 118.70769 | 2291 ft | 29 kts | 45° |
| 2026-05-06 11:48 | -23.13428 | 118.70934 | 2290 ft | 30 kts | 45° |
| 2026-05-06 11:49 | -23.13281 | 118.71093 | 2292 ft | 29 kts | 46° |
| 2026-05-06 11:49 | -23.13164 | 118.71224 | 2292 ft | 21 kts | 46° |
| 2026-05-06 11:49 | -23.13080 | 118.71329 | 2292 ft | 12 kts | 41° |
| 2026-05-06 11:49 | -23.13073 | 118.71314 | 2297 ft | 8 kts | 192° |
| 2026-05-06 11:50 | -23.13116 | 118.71280 | 2301 ft | 19 kts | 224° |
| 2026-05-06 11:50 | -23.13340 | 118.71029 | 2301 ft | 72 kts | 225° |
| 2026-05-06 11:50 | -23.13788 | 118.70533 | 2342 ft | 109 kts | 222° |
| 2026-05-06 11:50 | -23.14295 | 118.69906 | 2733 ft | 107 kts | 225° |
| 2026-05-06 11:51 | -23.14799 | 118.69203 | 2882 ft | 130 kts | 221° |
| 2026-05-06 11:51 | -23.15383 | 118.68404 | 3137 ft | 148 kts | 224° |
| 2026-05-06 11:51 | -23.16087 | 118.67459 | 3266 ft | 168 kts | 227° |
| 2026-05-06 11:51 | -23.16728 | 118.66396 | 3708 ft | 167 kts | 238° |
| 2026-05-06 11:52 | -23.16861 | 118.65117 | 4014 ft | 181 kts | 284° |
| 2026-05-06 11:52 | -23.16168 | 118.63988 | 4256 ft | 179 kts | 332° |
| 2026-05-06 11:52 | -23.15056 | 118.63706 | 4698 ft | 158 kts | 18° |
| 2026-05-06 11:52 | -23.14140 | 118.64201 | 5171 ft | 143 kts | 41° |
| 2026-05-06 11:53 | -23.13311 | 118.64786 | 5634 ft | 142 kts | 39° |
| 2026-05-06 11:53 | -23.12488 | 118.65380 | 6113 ft | 142 kts | 40° |
| 2026-05-06 11:53 | -23.11687 | 118.65997 | 6592 ft | 139 kts | 44° |
| 2026-05-06 11:53 | -23.10961 | 118.66645 | 7034 ft | 129 kts | 44° |
| 2026-05-06 11:54 | -23.10257 | 118.67229 | 7510 ft | 126 kts | 44° |
| 2026-05-06 11:54 | -23.09581 | 118.67822 | 7980 ft | 123 kts | 44° |
| 2026-05-06 11:54 | -23.08937 | 118.68411 | 8455 ft | 119 kts | 44° |
| 2026-05-06 11:54 | -23.08328 | 118.68991 | 8946 ft | 114 kts | 43° |
| 2026-05-06 11:55 | -23.07756 | 118.69539 | 9437 ft | 106 kts | 44° |
| 2026-05-06 11:55 | -23.07245 | 118.70047 | 9916 ft | 91 kts | 44° |
| 2026-05-06 11:55 | -23.06827 | 118.70448 | 10258 ft | 72 kts | 38° |
| 2026-05-06 11:55 | -23.06406 | 118.70869 | 10313 ft | 85 kts | 50° |
| 2026-05-06 11:56 | -23.06057 | 118.71246 | 10290 ft | 66 kts | 41° |
| 2026-05-06 11:56 | -23.04933 | 118.71199 | 7304 ft | 270 kts | 17° |
| 2026-05-06 11:56 | -23.03202 | 118.71901 | 6977 ft | 266 kts | 34° |
| 2026-05-06 11:56 | -23.01739 | 118.73114 | 6626 ft | 264 kts | 45° |
| 2026-05-06 11:57 | -23.00413 | 118.74463 | 6290 ft | 260 kts | 49° |
| 2026-05-06 11:57 | -22.99202 | 118.75856 | 6428 ft | 242 kts | 50° |
| 2026-05-06 11:57 | -22.98098 | 118.77134 | 6889 ft | 224 kts | 50° |
| 2026-05-06 11:57 | -22.97070 | 118.78341 | 7352 ft | 213 kts | 50° |
| 2026-05-06 11:58 | -22.96092 | 118.79497 | 7820 ft | 204 kts | 50° |
| 2026-05-06 11:58 | -22.95098 | 118.80565 | 8302 ft | 198 kts | 45° |
| 2026-05-06 11:58 | -22.94125 | 118.81597 | 8792 ft | 193 kts | 47° |
| 2026-05-06 11:58 | -22.93196 | 118.82641 | 9292 ft | 191 kts | 47° |
| 2026-05-06 11:59 | -22.92274 | 118.83659 | 9802 ft | 188 kts | 46° |
| 2026-05-06 11:59 | -22.91360 | 118.84662 | 10278 ft | 185 kts | 46° |
| 2026-05-06 11:59 | -22.90460 | 118.85648 | 10743 ft | 183 kts | 45° |
| 2026-05-06 11:59 | -22.89575 | 118.86624 | 11211 ft | 180 kts | 46° |
| 2026-05-06 12:00 | -22.88706 | 118.87579 | 11683 ft | 176 kts | 46° |
| 2026-05-06 12:00 | -22.87860 | 118.88506 | 12156 ft | 174 kts | 45° |
| 2026-05-06 12:00 | -22.87015 | 118.89437 | 12644 ft | 172 kts | 45° |
| 2026-05-06 12:00 | -22.86181 | 118.90350 | 13138 ft | 169 kts | 45° |
| 2026-05-06 12:01 | -22.85355 | 118.91252 | 13576 ft | 170 kts | 45° |
| 2026-05-06 12:01 | -22.84517 | 118.92176 | 13953 ft | 174 kts | 45° |
| 2026-05-06 12:01 | -22.83660 | 118.93118 | 14298 ft | 177 kts | 45° |
| 2026-05-06 12:01 | -22.82789 | 118.94078 | 14642 ft | 180 kts | 45° |
| 2026-05-06 12:02 | -22.81906 | 118.95045 | 14996 ft | 181 kts | 44° |
| 2026-05-06 12:02 | -22.81013 | 118.96024 | 15353 ft | 184 kts | 44° |
| 2026-05-06 12:02 | -22.80111 | 118.97013 | 15713 ft | 185 kts | 44° |
| 2026-05-06 12:02 | -22.79199 | 118.98008 | 16076 ft | 187 kts | 44° |
| 2026-05-06 12:03 | -22.78284 | 118.99012 | 16444 ft | 187 kts | 44° |
| 2026-05-06 12:03 | -22.77367 | 119.00019 | 16808 ft | 188 kts | 44° |
| 2026-05-06 12:03 | -22.76440 | 119.01034 | 17122 ft | 192 kts | 43° |
| 2026-05-06 12:03 | -22.75482 | 119.02087 | 17376 ft | 200 kts | 43° |
| 2026-05-06 12:04 | -22.74485 | 119.03177 | 17640 ft | 207 kts | 43° |
| 2026-05-06 12:04 | -22.73460 | 119.04306 | 17944 ft | 212 kts | 43° |
| 2026-05-06 12:04 | -22.72412 | 119.05449 | 18267 ft | 216 kts | 43° |
| 2026-05-06 12:04 | -22.71347 | 119.06610 | 18569 ft | 219 kts | 43° |
| 2026-05-06 12:05 | -22.70272 | 119.07790 | 18842 ft | 222 kts | 44° |
| 2026-05-06 12:05 | -22.69181 | 119.08987 | 19120 ft | 225 kts | 43° |
| 2026-05-06 12:05 | -22.68074 | 119.10195 | 19402 ft | 227 kts | 43° |
| 2026-05-06 12:05 | -22.66956 | 119.11416 | 19685 ft | 229 kts | 43° |
| 2026-05-06 12:06 | -22.65829 | 119.12649 | 19973 ft | 232 kts | 43° |
| 2026-05-06 12:06 | -22.64692 | 119.13894 | 20256 ft | 234 kts | 43° |
| 2026-05-06 12:06 | -22.63543 | 119.15148 | 20547 ft | 236 kts | 43° |
| 2026-05-06 12:06 | -22.62402 | 119.16392 | 20831 ft | 236 kts | 43° |
| 2026-05-06 12:07 | -22.61243 | 119.17659 | 21109 ft | 238 kts | 43° |
| 2026-05-06 12:07 | -22.60072 | 119.18939 | 21358 ft | 241 kts | 43° |
| 2026-05-06 12:07 | -22.58885 | 119.20234 | 21611 ft | 243 kts | 43° |
| 2026-05-06 12:07 | -22.57688 | 119.21539 | 21865 ft | 246 kts | 43° |
| 2026-05-06 12:08 | -22.56479 | 119.22858 | 22122 ft | 248 kts | 43° |
| 2026-05-06 12:08 | -22.55262 | 119.24189 | 22380 ft | 250 kts | 43° |
| 2026-05-06 12:08 | -22.54035 | 119.25527 | 22639 ft | 251 kts | 42° |
| 2026-05-06 12:08 | -22.52815 | 119.26855 | 22902 ft | 251 kts | 44° |
| 2026-05-06 12:09 | -22.51575 | 119.28192 | 23167 ft | 252 kts | 42° |
| 2026-05-06 12:09 | -22.50342 | 119.29547 | 23428 ft | 253 kts | 43° |
| 2026-05-06 12:09 | -22.49102 | 119.30905 | 23693 ft | 254 kts | 42° |
| 2026-05-06 12:09 | -22.47853 | 119.32261 | 23913 ft | 255 kts | 42° |
| 2026-05-06 12:10 | -22.46602 | 119.33622 | 24133 ft | 255 kts | 42° |
| 2026-05-06 12:10 | -22.45349 | 119.34985 | 24358 ft | 256 kts | 41° |
| 2026-05-06 12:10 | -22.44095 | 119.36350 | 24583 ft | 256 kts | 41° |
| 2026-05-06 12:10 | -22.42842 | 119.37713 | 24807 ft | 256 kts | 41° |
| 2026-05-06 12:11 | -22.41585 | 119.39078 | 25036 ft | 256 kts | 41° |
| 2026-05-06 12:11 | -22.40322 | 119.40431 | 25257 ft | 256 kts | 39° |
| 2026-05-06 12:11 | -22.39048 | 119.41769 | 25488 ft | 255 kts | 39° |
| 2026-05-06 12:11 | -22.37762 | 119.43093 | 25721 ft | 255 kts | 38° |
| 2026-05-06 12:12 | -22.36470 | 119.44404 | 25953 ft | 255 kts | 37° |
| 2026-05-06 12:12 | -22.35168 | 119.45702 | 26190 ft | 254 kts | 36° |
| 2026-05-06 12:12 | -22.33859 | 119.46983 | 26425 ft | 254 kts | 36° |
| 2026-05-06 12:12 | -22.32542 | 119.48250 | 26667 ft | 253 kts | 35° |
| 2026-05-06 12:13 | -22.31223 | 119.49496 | 26910 ft | 251 kts | 34° |
| 2026-05-06 12:13 | -22.29900 | 119.50723 | 27155 ft | 250 kts | 33° |
| 2026-05-06 12:13 | -22.28572 | 119.51934 | 27399 ft | 249 kts | 32° |
| 2026-05-06 12:13 | -22.27242 | 119.53123 | 27647 ft | 247 kts | 31° |
| 2026-05-06 12:14 | -22.25912 | 119.54295 | 27889 ft | 247 kts | 33° |
| 2026-05-06 12:14 | -22.24732 | 119.55671 | 28132 ft | 251 kts | 45° |
| 2026-05-06 12:14 | -22.23660 | 119.57156 | 28378 ft | 251 kts | 51° |
| 2026-05-06 12:14 | -22.22715 | 119.58740 | 28631 ft | 248 kts | 47° |
| 2026-05-06 12:15 | -22.21689 | 119.60190 | 28886 ft | 246 kts | 48° |
| 2026-05-06 12:15 | -22.20723 | 119.61710 | 29100 ft | 245 kts | 45° |
| 2026-05-06 12:15 | -22.19565 | 119.63078 | 29107 ft | 250 kts | 34° |
| 2026-05-06 12:15 | -22.18264 | 119.64376 | 29108 ft | 260 kts | 34° |
| 2026-05-06 12:16 | -22.16939 | 119.65773 | 29107 ft | 272 kts | 38° |
| 2026-05-06 12:16 | -22.15592 | 119.67261 | 29104 ft | 282 kts | 38° |
| 2026-05-06 12:16 | -22.14188 | 119.68788 | 29106 ft | 291 kts | 38° |
| 2026-05-06 12:16 | -22.12738 | 119.70347 | 29107 ft | 298 kts | 38° |
| 2026-05-06 12:17 | -22.09737 | 119.73585 | 29105 ft | 312 kts | 39° |
| 2026-05-06 12:17 | -22.06618 | 119.76960 | 29108 ft | 322 kts | 39° |
| 2026-05-06 12:18 | -22.03399 | 119.80429 | 29077 ft | 331 kts | 39° |
| 2026-05-06 12:18 | -22.00113 | 119.83972 | 29098 ft | 337 kts | 39° |
| 2026-05-06 12:19 | -21.96767 | 119.87580 | 29100 ft | 343 kts | 39° |
| 2026-05-06 12:19 | -21.93372 | 119.91233 | 29101 ft | 347 kts | 39° |
| 2026-05-06 12:20 | -21.89952 | 119.94914 | 29100 ft | 349 kts | 39° |
| 2026-05-06 12:20 | -21.86507 | 119.98614 | 29100 ft | 350 kts | 39° |
| 2026-05-06 12:21 | -21.83054 | 120.02326 | 29098 ft | 352 kts | 39° |
| 2026-05-06 12:21 | -21.79610 | 120.06021 | 29097 ft | 352 kts | 39° |
| 2026-05-06 12:22 | -21.76137 | 120.09750 | 29096 ft | 353 kts | 39° |
| 2026-05-06 12:22 | -21.72649 | 120.13482 | 29087 ft | 354 kts | 39° |
| 2026-05-06 12:23 | -21.69164 | 120.17220 | 29087 ft | 354 kts | 39° |
| 2026-05-06 12:23 | -21.66238 | 120.20347 | 29087 ft | 354 kts | 39° |
| 2026-05-06 12:24 | -21.62745 | 120.24091 | 29089 ft | 355 kts | 39° |
| 2026-05-06 12:24 | -21.59238 | 120.27838 | 29080 ft | 357 kts | 39° |
| 2026-05-06 12:25 | -21.55722 | 120.31591 | 29087 ft | 356 kts | 39° |
| 2026-05-06 12:25 | -21.52211 | 120.35339 | 29086 ft | 355 kts | 39° |
| 2026-05-06 12:26 | -21.48701 | 120.39083 | 29081 ft | 356 kts | 39° |
| 2026-05-06 12:26 | -21.45212 | 120.42797 | 29072 ft | 356 kts | 39° |
| 2026-05-06 12:27 | -21.41700 | 120.46542 | 29070 ft | 356 kts | 39° |
| 2026-05-06 12:27 | -21.38182 | 120.50280 | 29071 ft | 356 kts | 39° |
| 2026-05-06 12:28 | -21.34665 | 120.54028 | 29071 ft | 356 kts | 39° |
| 2026-05-06 12:28 | -21.31143 | 120.57765 | 29052 ft | 356 kts | 38° |
| 2026-05-06 12:29 | -21.27627 | 120.61503 | 29054 ft | 356 kts | 38° |
| 2026-05-06 12:29 | -21.24102 | 120.65241 | 29053 ft | 356 kts | 38° |
| 2026-05-06 12:30 | -21.20579 | 120.68978 | 29052 ft | 357 kts | 38° |
| 2026-05-06 12:30 | -21.17050 | 120.72717 | 29047 ft | 357 kts | 38° |
| 2026-05-06 12:31 | -21.13518 | 120.76459 | 29046 ft | 358 kts | 38° |
| 2026-05-06 12:31 | -21.09982 | 120.80198 | 29045 ft | 357 kts | 38° |
| 2026-05-06 12:32 | -21.06451 | 120.83935 | 29053 ft | 357 kts | 38° |
| 2026-05-06 12:32 | -21.02919 | 120.87666 | 29044 ft | 357 kts | 38° |
| 2026-05-06 12:33 | -20.99387 | 120.91398 | 29042 ft | 357 kts | 38° |
| 2026-05-06 12:33 | -20.95852 | 120.95127 | 29012 ft | 357 kts | 37° |
| 2026-05-06 12:34 | -20.92317 | 120.98850 | 29037 ft | 357 kts | 38° |
| 2026-05-06 12:34 | -20.88781 | 121.02583 | 29031 ft | 357 kts | 38° |
| 2026-05-06 12:35 | -20.85234 | 121.06312 | 29030 ft | 358 kts | 38° |
| 2026-05-06 12:35 | -20.81686 | 121.10050 | 29033 ft | 358 kts | 38° |
| 2026-05-06 12:36 | -20.78155 | 121.13760 | 29036 ft | 358 kts | 38° |
| 2026-05-06 12:36 | -20.74598 | 121.17501 | 29034 ft | 359 kts | 38° |
| 2026-05-06 12:37 | -20.71036 | 121.21240 | 29031 ft | 359 kts | 38° |
| 2026-05-06 12:37 | -20.67473 | 121.24978 | 29030 ft | 359 kts | 38° |
| 2026-05-06 12:38 | -20.61932 | 121.30395 | 29037 ft | 345 kts | 19° |
| 2026-05-06 12:38 | -20.57599 | 121.32391 | 29032 ft | 341 kts | 15° |
| 2026-05-06 12:39 | -20.53460 | 121.35056 | 29034 ft | 350 kts | 24° |
| 2026-05-06 12:39 | -20.46007 | 121.39696 | 29029 ft | 348 kts | 21° |
| 2026-05-06 12:40 | -20.37569 | 121.44481 | 29031 ft | 325 kts | 358° |
| 2026-05-06 12:40 | -20.28698 | 121.45837 | 29032 ft | 332 kts | 4° |
| 2026-05-06 12:41 | -20.06721 | 121.50985 | 29026 ft | 328 kts | 0° |
| 2026-05-06 12:41 | -19.71221 | 121.59277 | 29016 ft | 326 kts | 360° |
| 2026-05-06 12:42 | -19.35963 | 121.67471 | 29015 ft | 322 kts | 359° |
| 2026-05-06 12:42 | -19.11395 | 121.73137 | 29005 ft | 322 kts | 359° |
| 2026-05-06 12:43 | -19.09168 | 121.73644 | 28645 ft | 333 kts | 359° |
| 2026-05-06 12:43 | -19.07706 | 121.73976 | 28381 ft | 339 kts | 360° |
| 2026-05-06 12:43 | -19.06546 | 121.74245 | 28193 ft | 343 kts | 0° |
| 2026-05-06 12:43 | -19.05376 | 121.74519 | 28014 ft | 345 kts | 0° |
| 2026-05-06 12:44 | -19.04203 | 121.74795 | 27829 ft | 346 kts | 0° |
| 2026-05-06 12:44 | -19.03027 | 121.75071 | 27603 ft | 346 kts | 1° |
| 2026-05-06 12:44 | -19.01867 | 121.75342 | 27330 ft | 346 kts | 1° |
| 2026-05-06 12:44 | -19.00673 | 121.75616 | 27013 ft | 347 kts | 1° |
| 2026-05-06 12:45 | -18.99509 | 121.75881 | 26719 ft | 347 kts | 1° |
| 2026-05-06 12:45 | -18.98313 | 121.76153 | 26411 ft | 347 kts | 1° |
| 2026-05-06 12:45 | -18.95992 | 121.76687 | 25831 ft | 347 kts | 2° |
| 2026-05-06 12:46 | -18.94813 | 121.76961 | 25543 ft | 347 kts | 2° |
| 2026-05-06 12:46 | -18.93631 | 121.77236 | 25256 ft | 347 kts | 2° |
| 2026-05-06 12:46 | -18.92451 | 121.77509 | 24972 ft | 347 kts | 2° |
| 2026-05-06 12:46 | -18.91269 | 121.77781 | 24698 ft | 347 kts | 2° |
| 2026-05-06 12:47 | -18.90090 | 121.78052 | 24430 ft | 347 kts | 3° |
| 2026-05-06 12:47 | -18.88910 | 121.78323 | 24160 ft | 347 kts | 3° |
| 2026-05-06 12:47 | -18.87729 | 121.78593 | 23897 ft | 347 kts | 3° |
| 2026-05-06 12:47 | -18.86548 | 121.78865 | 23637 ft | 347 kts | 3° |
| 2026-05-06 12:48 | -18.84615 | 121.79310 | 23134 ft | 348 kts | 4° |
| 2026-05-06 12:48 | -18.82248 | 121.79851 | 22516 ft | 348 kts | 4° |
| 2026-05-06 12:48 | -18.79878 | 121.80398 | 21902 ft | 349 kts | 5° |
| 2026-05-06 12:48 | -18.77506 | 121.80943 | 21308 ft | 349 kts | 5° |
| 2026-05-06 12:49 | -18.75129 | 121.81489 | 20713 ft | 350 kts | 5° |
| 2026-05-06 12:49 | -18.72747 | 121.82036 | 20144 ft | 351 kts | 6° |
| 2026-05-06 12:49 | -18.70359 | 121.82591 | 19584 ft | 351 kts | 6° |
| 2026-05-06 12:49 | -18.67983 | 121.83149 | 19034 ft | 348 kts | 7° |
| 2026-05-06 12:50 | -18.65635 | 121.83688 | 18494 ft | 343 kts | 7° |
| 2026-05-06 12:50 | -18.63311 | 121.84209 | 17903 ft | 340 kts | 7° |
| 2026-05-06 12:50 | -18.61014 | 121.84735 | 17290 ft | 336 kts | 8° |
| 2026-05-06 12:50 | -18.58748 | 121.85260 | 16681 ft | 332 kts | 8° |
| 2026-05-06 12:51 | -18.56505 | 121.85773 | 16094 ft | 327 kts | 8° |
| 2026-05-06 12:51 | -18.54296 | 121.86278 | 15532 ft | 323 kts | 8° |
| 2026-05-06 12:51 | -18.52116 | 121.86777 | 14976 ft | 318 kts | 9° |
| 2026-05-06 12:51 | -18.49968 | 121.87270 | 14434 ft | 314 kts | 9° |
| 2026-05-06 12:52 | -18.47874 | 121.87748 | 13919 ft | 310 kts | 9° |
| 2026-05-06 12:52 | -18.45778 | 121.88229 | 13339 ft | 306 kts | 10° |
| 2026-05-06 12:52 | -18.43679 | 121.88709 | 12744 ft | 303 kts | 10° |
| 2026-05-06 12:52 | -18.41660 | 121.89169 | 12176 ft | 300 kts | 11° |
| 2026-05-06 12:53 | -18.39633 | 121.89634 | 11606 ft | 297 kts | 11° |
| 2026-05-06 12:53 | -18.37625 | 121.90095 | 11053 ft | 294 kts | 12° |
| 2026-05-06 12:53 | -18.35635 | 121.90548 | 10503 ft | 291 kts | 12° |
| 2026-05-06 12:53 | -18.33665 | 121.90997 | 9984 ft | 288 kts | 12° |
| 2026-05-06 12:54 | -18.31717 | 121.91444 | 9449 ft | 285 kts | 12° |
| 2026-05-06 12:54 | -18.29792 | 121.91885 | 8919 ft | 282 kts | 12° |
| 2026-05-06 12:54 | -18.27883 | 121.92320 | 8395 ft | 278 kts | 13° |
| 2026-05-06 12:54 | -18.26022 | 121.92755 | 7876 ft | 269 kts | 13° |
| 2026-05-06 12:55 | -18.24217 | 121.93174 | 7366 ft | 262 kts | 13° |
| 2026-05-06 12:55 | -18.22475 | 121.93564 | 6865 ft | 240 kts | 13° |
| 2026-05-06 12:55 | -18.20966 | 121.93922 | 6360 ft | 208 kts | 13° |
| 2026-05-06 12:55 | -18.19625 | 121.94217 | 6029 ft | 185 kts | 13° |
| 2026-05-06 12:56 | -18.18403 | 121.94420 | 5760 ft | 173 kts | 358° |
| 2026-05-06 12:56 | -18.17264 | 121.94105 | 5491 ft | 167 kts | 341° |
| 2026-05-06 12:56 | -18.16179 | 121.93709 | 5246 ft | 163 kts | 341° |
| 2026-05-06 12:56 | -18.15113 | 121.93324 | 5001 ft | 161 kts | 341° |
| 2026-05-06 12:57 | -18.14032 | 121.92930 | 4762 ft | 169 kts | 341° |
| 2026-05-06 12:57 | -18.12901 | 121.92521 | 4523 ft | 174 kts | 341° |
| 2026-05-06 12:57 | -18.11779 | 121.92127 | 4281 ft | 163 kts | 342° |
| 2026-05-06 12:57 | -18.10740 | 121.91764 | 4029 ft | 153 kts | 342° |
| 2026-05-06 12:58 | -18.09738 | 121.91405 | 3780 ft | 155 kts | 341° |
| 2026-05-06 12:58 | -18.08677 | 121.91021 | 3549 ft | 168 kts | 341° |
| 2026-05-06 12:58 | -18.07540 | 121.90620 | 3327 ft | 175 kts | 341° |
| 2026-05-06 12:58 | -18.06377 | 121.90210 | 3096 ft | 177 kts | 341° |
| 2026-05-06 12:59 | -18.05221 | 121.89807 | 3001 ft | 170 kts | 341° |
| 2026-05-06 12:59 | -18.04138 | 121.89431 | 2995 ft | 159 kts | 341° |
| 2026-05-06 12:59 | -18.03107 | 121.89071 | 2988 ft | 153 kts | 341° |
| 2026-05-06 12:59 | -18.02119 | 121.88725 | 2985 ft | 150 kts | 341° |
| 2026-05-06 13:00 | -18.01117 | 121.88375 | 2991 ft | 149 kts | 341° |
| 2026-05-06 13:00 | -18.00140 | 121.88096 | 2982 ft | 148 kts | 358° |
| 2026-05-06 13:00 | -17.99116 | 121.88279 | 2990 ft | 148 kts | 12° |
| 2026-05-06 13:00 | -17.98162 | 121.88666 | 2983 ft | 149 kts | 40° |
| 2026-05-06 13:01 | -17.97600 | 121.89573 | 2990 ft | 149 kts | 62° |
| 2026-05-06 13:01 | -17.97116 | 121.90538 | 2994 ft | 149 kts | 61° |
| 2026-05-06 13:01 | -17.96634 | 121.91486 | 2996 ft | 149 kts | 61° |
| 2026-05-06 13:01 | -17.96134 | 121.92456 | 2997 ft | 150 kts | 61° |
| 2026-05-06 13:02 | -17.95646 | 121.93413 | 3008 ft | 153 kts | 61° |
| 2026-05-06 13:02 | -17.95136 | 121.94410 | 3004 ft | 156 kts | 61° |
| 2026-05-06 13:02 | -17.94637 | 121.95401 | 3003 ft | 152 kts | 61° |
| 2026-05-06 13:02 | -17.94148 | 121.96366 | 2999 ft | 143 kts | 62° |
| 2026-05-06 13:03 | -17.93706 | 121.97248 | 2986 ft | 132 kts | 61° |
| 2026-05-06 13:03 | -17.93294 | 121.98055 | 2983 ft | 118 kts | 61° |
| 2026-05-06 13:03 | -17.92932 | 121.98771 | 2980 ft | 105 kts | 60° |
| 2026-05-06 13:03 | -17.92596 | 121.99415 | 2977 ft | 97 kts | 60° |
| 2026-05-06 13:04 | -17.92281 | 122.00024 | 2979 ft | 92 kts | 60° |
| 2026-05-06 13:04 | -17.91970 | 122.00604 | 2984 ft | 90 kts | 59° |
| 2026-05-06 13:04 | -17.91624 | 122.01191 | 3000 ft | 104 kts | 53° |
| 2026-05-06 13:04 | -17.91180 | 122.01846 | 3006 ft | 113 kts | 54° |
| 2026-05-06 13:05 | -17.90733 | 122.02525 | 3005 ft | 113 kts | 54° |
| 2026-05-06 13:05 | -17.90304 | 122.03187 | 3007 ft | 101 kts | 55° |
| 2026-05-06 13:05 | -17.89929 | 122.03751 | 3001 ft | 90 kts | 51° |
| 2026-05-06 13:05 | -17.89676 | 122.04325 | 2970 ft | 89 kts | 95° |
| 2026-05-06 13:06 | -17.89955 | 122.04893 | 2991 ft | 89 kts | 110° |
| 2026-05-06 13:06 | -17.90144 | 122.05525 | 2995 ft | 92 kts | 108° |
| 2026-05-06 13:06 | -17.90369 | 122.06164 | 3002 ft | 94 kts | 107° |
| 2026-05-06 13:06 | -17.90580 | 122.06813 | 3003 ft | 94 kts | 106° |
| 2026-05-06 13:07 | -17.90775 | 122.07464 | 3000 ft | 93 kts | 105° |
| 2026-05-06 13:07 | -17.90961 | 122.08120 | 2998 ft | 94 kts | 105° |
| 2026-05-06 13:07 | -17.91169 | 122.08812 | 2785 ft | 102 kts | 108° |
| 2026-05-06 13:07 | -17.91405 | 122.09499 | 2475 ft | 99 kts | 109° |
| 2026-05-06 13:08 | -17.91631 | 122.10169 | 2233 ft | 96 kts | 105° |
| 2026-05-06 13:08 | -17.91818 | 122.10823 | 2057 ft | 93 kts | 100° |
| 2026-05-06 13:08 | -17.91985 | 122.11486 | 1839 ft | 94 kts | 103° |
| 2026-05-06 13:08 | -17.92149 | 122.12140 | 1686 ft | 92 kts | 98° |
| 2026-05-06 13:09 | -17.92300 | 122.12792 | 1562 ft | 92 kts | 106° |
| 2026-05-06 13:09 | -17.92463 | 122.13454 | 1363 ft | 93 kts | 98° |
| 2026-05-06 13:09 | -17.92560 | 122.13888 | 1266 ft | 90 kts | 99° |
| 2026-05-06 13:09 | -17.92705 | 122.14511 | 1097 ft | 87 kts | 101° |
| 2026-05-06 13:10 | -17.92875 | 122.15145 | 1028 ft | 92 kts | 101° |
| 2026-05-06 13:10 | -17.93064 | 122.15818 | 1013 ft | 99 kts | 101° |
| 2026-05-06 13:10 | -17.93236 | 122.16518 | 994 ft | 98 kts | 99° |
| 2026-05-06 13:10 | -17.93419 | 122.17208 | 910 ft | 99 kts | 103° |
| 2026-05-06 13:11 | -17.93605 | 122.17898 | 808 ft | 96 kts | 103° |
| 2026-05-06 13:11 | -17.93769 | 122.18569 | 677 ft | 94 kts | 103° |
| 2026-05-06 13:11 | -17.93930 | 122.19226 | 549 ft | 91 kts | 104° |
| 2026-05-06 13:11 | -17.94102 | 122.19845 | 429 ft | 86 kts | 106° |
| 2026-05-06 13:12 | -17.94268 | 122.20439 | 315 ft | 85 kts | 104° |
| 2026-05-06 13:12 | -17.94426 | 122.21036 | 221 ft | 85 kts | 104° |
| 2026-05-06 13:12 | -17.94586 | 122.21629 | 106 ft | 83 kts | 105° |
| 2026-05-06 13:12 | -17.94723 | 122.22166 | 54 ft | 61 kts | 106° |
| 2026-05-06 13:13 | -17.94780 | 122.22410 | 52 ft | 16 kts | 67° |
| 2026-05-06 13:13 | -17.94722 | 122.22453 | 50 ft | 8 kts | 82° |
| 2026-05-06 13:13 | -17.94747 | 122.22555 | 50 ft | 21 kts | 102° |
| 2026-05-06 13:13 | -17.94776 | 122.22699 | 47 ft | 11 kts | 53° |
| 2026-05-06 13:14 | -17.94683 | 122.22733 | 47 ft | 10 kts | 52° |
| 2026-05-06 13:14 | -17.94700 | 122.22823 | 45 ft | 15 kts | 107° |
| 2026-05-06 13:14 | -17.94730 | 122.22938 | 42 ft | 17 kts | 103° |
| 2026-05-06 13:14 | -17.94758 | 122.23049 | 38 ft | 16 kts | 104° |
| 2026-05-06 13:15 | -17.94789 | 122.23158 | 34 ft | 22 kts | 107° |
| 2026-05-06 13:15 | -17.94819 | 122.23271 | 29 ft | 13 kts | 104° |
| 2026-05-06 13:15 | -17.94879 | 122.23349 | 26 ft | 21 kts | 136° |
| 2026-05-06 13:15 | -17.94962 | 122.23429 | 25 ft | 13 kts | 118° |
| 2026-05-06 13:16 | -17.94993 | 122.23541 | 25 ft | 5 kts | 105° |
| 2026-05-06 13:16 | -17.94993 | 122.23580 | 26 ft | 6 kts | 20° |
| 2026-05-06 13:16 | -17.94981 | 122.23583 | 24 ft | 0 kts | 14° |